createdAt,value
2023-01-11T00:02:16.536Z,80.48
2023-01-11T00:04:44.274Z,80.91
2023-01-11T00:07:13.115Z,81.63
2023-01-11T00:09:40.624Z,80.92
2023-01-11T00:12:08.698Z,80.95
2023-01-11T00:14:37.420Z,80.93
2023-01-11T00:17:04.900Z,80.71
2023-01-11T00:19:32.737Z,80.19
2023-01-11T00:22:00.345Z,80.70
2023-01-11T00:24:29.228Z,81.04
2023-01-11T00:26:56.867Z,81.13
2023-01-11T00:29:24.415Z,81.62
2023-01-11T00:31:53.236Z,81.11
2023-01-11T00:34:21.159Z,82.05
2023-01-11T00:36:48.639Z,81.26
2023-01-11T00:39:16.323Z,81.90
2023-01-11T00:42:02.854Z,81.72
2023-01-11T00:44:48.359Z,81.89
2023-01-11T00:47:33.618Z,81.97
2023-01-11T00:50:01.329Z,81.51
2023-01-11T00:52:28.964Z,81.96
2023-01-11T00:54:56.738Z,81.94
2023-01-11T00:57:25.584Z,81.08
2023-01-11T00:59:53.021Z,81.68
2023-01-11T01:02:20.587Z,81.78
2023-01-11T01:04:48.042Z,81.27
2023-01-11T01:07:15.533Z,81.18
2023-01-11T01:09:43.032Z,80.80
2023-01-11T01:12:10.569Z,81.40
2023-01-11T01:14:38.840Z,81.55
2023-01-11T01:17:08.490Z,80.88
2023-01-11T01:19:38.150Z,80.60
2023-01-11T01:22:05.957Z,81.40
2023-01-11T01:24:33.907Z,81.13
2023-01-11T01:27:01.373Z,80.85
2023-01-11T01:29:28.855Z,80.30
2023-01-11T01:31:57.756Z,80.27
2023-01-11T01:34:25.220Z,80.84
2023-01-11T01:36:52.694Z,80.53
2023-01-11T01:39:20.195Z,80.90
2023-01-11T01:41:47.664Z,81.45
2023-01-11T01:44:52.564Z,80.13
2023-01-11T01:47:24.778Z,80.36
2023-01-11T01:49:52.380Z,80.85
2023-01-11T01:52:20.229Z,80.69
2023-01-11T01:54:50.122Z,82.01
2023-01-11T01:57:22.389Z,81.05
2023-01-11T01:59:52.736Z,81.72
2023-01-11T02:02:25.594Z,81.72
2023-01-11T02:04:56.211Z,81.10
2023-01-11T02:07:27.442Z,81.25
2023-01-11T02:10:00.638Z,81.22
2023-01-11T02:12:32.215Z,82.18
2023-01-11T02:15:01.684Z,81.31
2023-01-11T02:17:30.545Z,83.24
2023-01-11T02:20:08.491Z,82.83
2023-01-11T02:23:00.477Z,83.82
2023-01-11T02:25:56.415Z,83.54
2023-01-11T02:28:30.745Z,84.07
2023-01-11T02:31:07.040Z,85.15
2023-01-11T02:33:43.588Z,84.53
2023-01-11T02:36:18.141Z,85.34
2023-01-11T02:38:52.766Z,85.62
2023-01-11T02:41:27.089Z,85.68
2023-01-11T02:44:19.262Z,86.07
2023-01-11T02:46:50.456Z,86.65
2023-01-11T02:49:29.116Z,86.93
2023-01-11T02:52:01.888Z,87.01
2023-01-11T02:54:30.709Z,86.84
2023-01-11T02:57:01.087Z,87.39
2023-01-11T02:59:33.582Z,86.73
2023-01-11T03:02:01.247Z,87.07
2023-01-11T03:04:30.861Z,87.40
2023-01-11T03:07:21.596Z,87.96
2023-01-11T03:09:58.830Z,86.74
2023-01-11T03:12:51.605Z,87.54
2023-01-11T03:15:34.784Z,88.93
2023-01-11T03:18:15.732Z,88.46
2023-01-11T03:20:49.561Z,87.72
2023-01-11T03:23:22.768Z,87.68
2023-01-11T03:25:58.859Z,89.05
2023-01-11T03:28:36.568Z,88.38
2023-01-11T03:31:09.803Z,88.18
2023-01-11T03:33:41.106Z,89.04
2023-01-11T03:36:18.838Z,88.25
2023-01-11T03:38:50.001Z,88.66
2023-01-11T03:41:21.369Z,89.57
2023-01-11T03:43:52.801Z,89.98
2023-01-11T03:46:24.856Z,89.70
2023-01-11T03:48:56.476Z,89.58
2023-01-11T03:51:27.970Z,88.98
2023-01-11T03:53:59.670Z,89.22
2023-01-11T03:56:36.990Z,89.72
2023-01-11T03:59:04.705Z,90.28
2023-01-11T04:01:33.615Z,90.08
2023-01-11T04:04:01.105Z,91.05
2023-01-11T04:06:28.773Z,90.91
2023-01-11T04:08:56.321Z,90.47
2023-01-11T04:11:23.758Z,89.55
2023-01-11T04:13:51.202Z,89.43
2023-01-11T04:16:18.744Z,89.71
2023-01-11T04:18:47.696Z,89.70
2023-01-11T04:21:15.162Z,90.15
2023-01-11T04:23:42.634Z,90.02
2023-01-11T04:26:10.352Z,89.42
2023-01-11T04:28:37.796Z,89.63
2023-01-11T04:31:05.489Z,89.69
2023-01-11T04:33:32.929Z,89.76
2023-01-11T04:36:05.417Z,89.79
2023-01-11T04:38:33.829Z,90.29
2023-01-11T04:41:15.400Z,89.41
2023-01-11T04:43:42.858Z,89.74
2023-01-11T04:46:11.253Z,90.21
2023-01-11T04:48:39.464Z,90.29
2023-01-11T04:51:08.979Z,89.66
2023-01-11T04:53:37.106Z,89.91
2023-01-11T04:56:05.940Z,89.12
2023-01-11T04:58:37.177Z,90.39
2023-01-11T05:01:09.955Z,90.94
2023-01-11T05:03:37.511Z,90.22
2023-01-11T05:06:05.768Z,90.18
2023-01-11T05:08:35.141Z,90.14
2023-01-11T05:11:05.088Z,91.39
2023-01-11T05:13:45.196Z,91.26
2023-01-11T05:16:14.923Z,91.59
2023-01-11T05:18:43.690Z,91.68
2023-01-11T05:21:12.784Z,91.44
2023-01-11T05:23:42.955Z,92.14
2023-01-11T05:26:12.603Z,91.40
2023-01-11T05:28:40.185Z,91.12
2023-01-11T05:31:07.752Z,91.41
2023-01-11T05:33:35.551Z,90.93
2023-01-11T05:36:05.497Z,91.77
2023-01-11T05:38:33.252Z,92.16
2023-01-11T05:41:03.497Z,92.00
2023-01-11T05:43:31.917Z,92.21
2023-01-11T05:45:59.576Z,92.16
2023-01-11T05:48:27.786Z,91.38
2023-01-11T05:50:57.026Z,91.98
2023-01-11T05:53:25.113Z,92.25
2023-01-11T05:55:53.496Z,92.03
2023-01-11T05:58:22.997Z,91.97
2023-01-11T06:00:51.187Z,92.28
2023-01-11T06:03:19.511Z,92.23
2023-01-11T06:05:47.532Z,92.20
2023-01-11T06:08:15.085Z,92.71
2023-01-11T06:10:42.785Z,92.43
2023-01-11T06:13:24.483Z,92.76
2023-01-11T06:15:53.679Z,92.42
2023-01-11T06:18:21.692Z,92.05
2023-01-11T06:20:53.519Z,91.96
2023-01-11T06:23:21.343Z,91.91
2023-01-11T06:25:48.857Z,91.28
2023-01-11T06:28:16.550Z,91.66
2023-01-11T06:30:44.217Z,91.65
2023-01-11T06:33:13.046Z,91.10
2023-01-11T06:35:42.661Z,91.01
2023-01-11T06:38:11.797Z,90.59
2023-01-11T06:40:41.270Z,90.89
2023-01-11T06:43:10.706Z,91.14
2023-01-11T06:45:39.097Z,91.29
2023-01-11T06:48:07.164Z,91.67
2023-01-11T06:50:36.034Z,91.16
2023-01-11T06:53:03.534Z,90.67
2023-01-11T06:55:32.484Z,91.52
2023-01-11T06:58:00.070Z,91.65
2023-01-11T07:00:27.883Z,91.89
2023-01-11T07:02:55.471Z,91.99
2023-01-11T07:05:23.039Z,92.01
2023-01-11T07:07:51.901Z,91.81
2023-01-11T07:10:19.458Z,91.73
2023-01-11T07:12:47.051Z,91.91
2023-01-11T07:15:14.554Z,92.07
2023-01-11T07:17:42.079Z,91.46
2023-01-11T07:20:11.199Z,90.90
2023-01-11T07:22:38.721Z,90.71
2023-01-11T07:25:08.590Z,90.95
2023-01-11T07:27:36.093Z,90.73
2023-01-11T07:30:03.671Z,91.35
2023-01-11T07:32:31.178Z,91.12
2023-01-11T07:34:59.056Z,91.63
2023-01-11T07:37:29.213Z,92.03
2023-01-11T07:39:57.184Z,91.45
2023-01-11T07:42:44.187Z,91.62
2023-01-11T07:45:12.297Z,90.91
2023-01-11T07:47:39.787Z,91.03
2023-01-11T07:50:08.715Z,91.63
2023-01-11T07:52:36.224Z,91.21
2023-01-11T07:55:04.414Z,91.38
2023-01-11T07:57:35.442Z,90.74
2023-01-11T08:00:03.445Z,91.40
2023-01-11T08:02:31.006Z,90.71
2023-01-11T08:04:58.734Z,90.37
2023-01-11T08:07:26.357Z,90.42
2023-01-11T08:09:53.819Z,90.45
2023-01-11T08:12:39.172Z,90.83
2023-01-11T08:15:10.293Z,89.81
2023-01-11T08:17:38.474Z,89.88
2023-01-11T08:20:06.501Z,90.02
2023-01-11T08:22:34.199Z,88.18
2023-01-11T08:25:01.750Z,87.99
2023-01-11T08:27:29.206Z,87.14
2023-01-11T08:29:56.668Z,87.31
2023-01-11T08:32:28.784Z,88.36
2023-01-11T08:34:56.444Z,88.62
2023-01-11T08:37:24.126Z,88.96
2023-01-11T08:39:52.065Z,88.26
2023-01-11T08:42:19.593Z,88.16
2023-01-11T08:44:47.091Z,88.28
2023-01-11T08:47:14.670Z,88.95
2023-01-11T08:49:43.439Z,89.03
2023-01-11T08:52:13.858Z,90.54
2023-01-11T08:54:41.479Z,89.67
2023-01-11T08:57:09.090Z,88.55
2023-01-11T08:59:36.551Z,87.92
2023-01-11T09:02:06.329Z,88.93
2023-01-11T09:04:34.843Z,88.38
2023-01-11T09:07:03.962Z,88.71
2023-01-11T09:09:31.924Z,89.86
2023-01-11T09:12:04.734Z,89.62
2023-01-11T09:14:33.157Z,89.41
2023-01-11T09:17:00.771Z,89.08
2023-01-11T09:19:28.277Z,88.12
2023-01-11T09:22:00.811Z,88.85
2023-01-11T09:24:29.931Z,87.95
2023-01-11T09:26:59.248Z,87.92
2023-01-11T09:29:27.168Z,88.38
2023-01-11T09:31:54.880Z,87.77
2023-01-11T09:34:23.114Z,87.06
2023-01-11T09:36:50.671Z,87.04
2023-01-11T09:39:20.417Z,87.07
2023-01-11T09:42:12.915Z,87.09
2023-01-11T09:44:50.705Z,85.49
2023-01-11T09:47:26.262Z,85.84
2023-01-11T09:49:57.172Z,85.73
2023-01-11T09:52:29.752Z,85.92
2023-01-11T09:54:58.516Z,85.89
2023-01-11T09:57:39.375Z,85.65
2023-01-11T10:00:16.323Z,85.04
2023-01-11T10:02:59.877Z,85.54
2023-01-11T10:05:42.000Z,85.13
2023-01-11T10:18:22.096Z,83.60
2023-01-11T10:18:28.855Z,84.07
2023-01-11T10:20:24.621Z,84.01
2023-01-11T10:22:57.405Z,83.91
2023-01-11T10:25:33.514Z,84.28
2023-01-11T10:28:07.385Z,84.38
2023-01-11T10:30:53.613Z,83.36
2023-01-11T10:33:46.286Z,83.30
2023-01-11T10:36:34.594Z,83.77
2023-01-11T10:39:21.666Z,83.54
2023-01-11T10:41:59.867Z,83.30
2023-01-11T10:44:35.650Z,83.46
2023-01-11T10:47:06.219Z,83.86
2023-01-11T10:49:44.425Z,82.96
2023-01-11T10:52:26.653Z,82.77
2023-01-11T10:54:57.166Z,82.92
2023-01-11T10:57:39.644Z,82.64
2023-01-11T11:00:36.409Z,83.15
2023-01-11T11:03:19.418Z,82.46
2023-01-11T11:05:53.731Z,81.91
2023-01-11T11:08:29.183Z,81.44
2023-01-11T11:11:01.867Z,80.76
2023-01-11T11:13:47.108Z,81.62
2023-01-11T11:16:31.279Z,81.29
2023-01-11T11:19:00.353Z,80.74
2023-01-11T11:21:33.588Z,81.17
2023-01-11T11:24:04.720Z,80.27
2023-01-11T11:26:37.272Z,80.48
2023-01-11T11:29:07.456Z,80.91
2023-01-11T11:31:37.299Z,79.69
2023-01-11T11:34:08.973Z,79.32
2023-01-11T11:36:44.238Z,80.36
2023-01-11T11:39:18.049Z,80.12
2023-01-11T11:41:50.441Z,78.54
2023-01-11T11:44:20.334Z,79.38
2023-01-11T11:47:06.547Z,79.04
2023-01-11T11:49:36.507Z,79.38
2023-01-11T11:52:06.285Z,78.54
2023-01-11T11:54:36.494Z,77.83
2023-01-11T11:57:15.621Z,78.41
2023-01-11T11:59:47.287Z,76.77
2023-01-11T12:02:24.473Z,77.43
2023-01-11T12:04:54.623Z,75.40
2023-01-11T12:07:25.003Z,76.69
2023-01-11T12:10:00.729Z,78.16
2023-01-11T12:12:29.596Z,77.67
2023-01-11T12:15:20.434Z,76.94
2023-01-11T12:17:48.815Z,76.88
2023-01-11T12:20:34.119Z,76.28
2023-01-11T12:23:16.693Z,74.85
2023-01-11T12:25:59.795Z,76.12
2023-01-11T12:28:42.158Z,75.90
2023-01-11T12:31:17.500Z,75.27
2023-01-11T12:33:52.834Z,74.97
2023-01-11T12:36:29.305Z,75.20
2023-01-11T12:39:06.743Z,74.40
2023-01-11T12:41:58.745Z,73.79
2023-01-11T12:44:39.990Z,72.91
2023-01-11T12:47:28.491Z,72.75
2023-01-11T12:50:05.875Z,71.95
2023-01-11T12:52:51.797Z,72.77
2023-01-11T12:55:44.567Z,72.87
2023-01-11T12:58:17.353Z,71.72
2023-01-11T13:00:59.929Z,73.20
2023-01-11T13:04:04.020Z,73.26
2023-01-11T13:06:39.202Z,73.23
2023-01-11T13:09:16.751Z,72.49
2023-01-11T13:11:52.880Z,73.38
2023-01-11T13:14:36.047Z,72.57
2023-01-11T13:17:19.089Z,73.16
2023-01-11T13:19:56.177Z,72.57
2023-01-11T13:22:29.141Z,72.17
2023-01-11T13:25:02.338Z,72.50
2023-01-11T13:27:31.755Z,71.15
2023-01-11T13:30:02.031Z,70.76
2023-01-11T13:32:35.754Z,71.02
2023-01-11T13:35:09.877Z,70.76
2023-01-11T13:37:42.183Z,68.93
2023-01-11T13:40:19.880Z,66.81
2023-01-11T13:42:51.906Z,67.64
2023-01-11T13:45:23.345Z,67.18
2023-01-11T13:47:55.552Z,66.99
2023-01-11T13:50:29.172Z,67.28
2023-01-11T13:53:03.928Z,66.94
2023-01-11T13:55:38.039Z,66.88
2023-01-11T13:58:12.132Z,67.17
2023-01-11T14:00:42.639Z,66.65
2023-01-11T14:03:21.680Z,66.56
2023-01-11T14:06:00.195Z,66.11
2023-01-11T14:08:53.574Z,66.71
2023-01-11T14:11:32.147Z,65.02
2023-01-11T14:14:16.265Z,66.32
2023-01-11T14:17:07.348Z,66.68
2023-01-11T14:19:42.199Z,66.03
2023-01-11T14:22:20.791Z,66.24
2023-01-11T14:24:58.220Z,66.30
2023-01-11T14:27:52.907Z,67.17
2023-01-11T14:30:41.428Z,65.74
2023-01-11T14:33:48.685Z,66.40
2023-01-11T14:36:34.939Z,66.71
2023-01-11T14:39:23.910Z,65.42
2023-01-11T14:42:29.269Z,66.04
2023-01-11T14:45:19.640Z,65.58
2023-01-11T14:48:06.131Z,66.74
2023-01-11T14:50:49.587Z,66.98
2023-01-11T14:53:20.384Z,66.54
2023-01-11T14:55:49.091Z,66.52
2023-01-11T14:58:21.152Z,66.31
2023-01-11T15:01:11.945Z,65.53
2023-01-11T15:03:57.474Z,66.36
2023-01-11T15:06:25.337Z,66.15
2023-01-11T15:08:55.895Z,66.67
2023-01-11T15:11:30.037Z,65.75
2023-01-11T15:13:59.664Z,65.49
2023-01-11T15:16:47.792Z,66.94
2023-01-11T15:19:27.279Z,66.01
2023-01-11T15:21:56.990Z,66.79
2023-01-11T15:24:27.761Z,66.03
2023-01-11T15:26:56.867Z,65.68
2023-01-11T15:29:28.082Z,65.39
2023-01-11T15:32:16.321Z,65.75
2023-01-11T15:34:46.388Z,65.98
2023-01-11T15:37:34.403Z,65.67
2023-01-11T15:40:06.502Z,64.96
2023-01-11T15:43:22.114Z,65.32
2023-01-11T15:46:26.867Z,65.36
2023-01-11T15:49:26.265Z,65.76
2023-01-11T15:52:19.725Z,65.47
2023-01-11T15:55:19.469Z,65.76
2023-01-11T15:58:12.077Z,65.80
2023-01-11T16:01:09.625Z,66.60
2023-01-11T16:03:57.920Z,65.81
2023-01-11T16:06:52.848Z,66.89
2023-01-11T16:09:31.925Z,66.81
2023-01-11T16:12:15.567Z,66.90
2023-01-11T16:15:07.715Z,66.83
2023-01-11T16:17:38.290Z,66.94
2023-01-11T16:20:14.588Z,66.92
2023-01-11T16:22:50.498Z,67.13
2023-01-11T16:25:18.696Z,67.58
2023-01-11T16:27:52.979Z,67.45
2023-01-11T16:30:21.128Z,67.87
2023-01-11T16:32:48.710Z,67.58
2023-01-11T16:35:19.215Z,68.22
2023-01-11T16:37:51.724Z,68.22
2023-01-11T16:40:24.322Z,68.71
2023-01-11T16:42:55.233Z,68.15
2023-01-11T16:45:25.065Z,68.25
2023-01-11T16:48:04.284Z,68.60
2023-01-11T16:50:34.905Z,68.32
2023-01-11T16:53:06.071Z,68.16
2023-01-11T16:55:37.624Z,68.49
2023-01-11T16:58:07.964Z,68.41
2023-01-11T17:00:39.412Z,67.79
2023-01-11T17:03:25.340Z,67.81
2023-01-11T17:05:58.452Z,68.51
2023-01-11T17:08:30.207Z,68.22
2023-01-11T17:11:02.338Z,68.21
2023-01-11T17:13:55.365Z,69.07
2023-01-11T17:16:26.040Z,68.99
2023-01-11T17:18:55.124Z,68.63
2023-01-11T17:21:25.600Z,68.60
2023-01-11T17:23:59.935Z,68.98
2023-01-11T17:26:30.435Z,68.24
2023-01-11T17:29:00.136Z,68.63
2023-01-11T17:31:30.807Z,67.74
2023-01-11T17:34:03.495Z,68.59
2023-01-11T17:36:32.239Z,67.98
2023-01-11T17:39:02.407Z,67.97
2023-01-11T17:41:48.214Z,68.20
2023-01-11T17:44:36.583Z,68.80
2023-01-11T17:47:07.669Z,68.30
2023-01-11T17:49:37.378Z,69.09
2023-01-11T17:52:21.076Z,69.26
2023-01-11T17:55:00.948Z,69.51
2023-01-11T17:57:28.736Z,69.52
2023-01-11T18:00:18.671Z,68.99
2023-01-11T18:02:47.224Z,68.97
2023-01-11T18:05:17.428Z,68.82
2023-01-11T18:07:48.079Z,70.39
2023-01-11T18:10:22.085Z,69.97
2023-01-11T18:12:50.715Z,69.68
2023-01-11T18:15:24.158Z,69.53
2023-01-11T18:17:56.573Z,69.76
2023-01-11T18:20:39.013Z,69.01
2023-01-11T18:23:22.548Z,68.50
2023-01-11T18:26:11.545Z,68.69
2023-01-11T18:28:39.092Z,68.64
2023-01-11T18:31:06.745Z,68.88
2023-01-11T18:33:35.064Z,67.63
2023-01-11T18:36:04.512Z,67.57
2023-01-11T18:38:33.912Z,68.25
2023-01-11T18:41:21.443Z,68.64
2023-01-11T18:43:49.025Z,68.60
2023-01-11T18:46:16.565Z,68.75
2023-01-11T18:48:44.124Z,68.20
2023-01-11T18:51:17.387Z,68.21
2023-01-11T18:53:45.018Z,68.30
2023-01-11T18:56:16.117Z,69.34
2023-01-11T18:58:43.653Z,69.04
2023-01-11T19:01:11.758Z,67.69
2023-01-11T19:03:39.381Z,67.40
2023-01-11T19:06:09.684Z,67.85
2023-01-11T19:08:37.384Z,68.53
2023-01-11T19:11:05.086Z,67.74
2023-01-11T19:13:33.911Z,67.77
2023-01-11T19:16:01.618Z,68.46
2023-01-11T19:18:29.485Z,67.92
2023-01-11T19:21:01.752Z,68.64
2023-01-11T19:23:29.484Z,67.53
2023-01-11T19:25:57.717Z,67.95
2023-01-11T19:28:25.288Z,67.70
2023-01-11T19:30:54.243Z,67.97
2023-01-11T19:33:21.868Z,67.73
2023-01-11T19:35:49.856Z,67.78
2023-01-11T19:38:18.238Z,67.98
2023-01-11T19:40:45.833Z,67.68
2023-01-11T19:43:13.330Z,67.51
2023-01-11T19:45:40.946Z,67.64
2023-01-11T19:48:10.802Z,67.91
2023-01-11T19:50:38.259Z,68.37
2023-01-11T19:53:08.548Z,68.49
2023-01-11T19:55:36.051Z,67.70
2023-01-11T19:58:04.527Z,67.62
2023-01-11T20:00:32.741Z,67.90
2023-01-11T20:03:05.684Z,68.60
2023-01-11T20:05:34.589Z,67.90
2023-01-11T20:08:02.090Z,68.56
2023-01-11T20:10:29.546Z,67.69
2023-01-11T20:12:57.020Z,68.50
2023-01-11T20:15:24.748Z,67.83
2023-01-11T20:17:52.292Z,68.25
2023-01-11T20:20:20.182Z,68.00
2023-01-11T20:22:49.036Z,68.53
2023-01-11T20:25:17.631Z,68.42
2023-01-11T20:27:45.116Z,68.24
2023-01-11T20:30:13.163Z,68.65
2023-01-11T20:32:42.483Z,67.61
2023-01-11T20:35:10.940Z,67.74
2023-01-11T20:37:38.779Z,68.84
2023-01-11T20:40:11.805Z,68.04
2023-01-11T20:42:40.027Z,67.91
2023-01-11T20:45:08.765Z,68.84
2023-01-11T20:47:36.437Z,68.48
2023-01-11T20:50:04.023Z,68.25
2023-01-11T20:52:31.718Z,68.78
2023-01-11T20:54:59.208Z,67.93
2023-01-11T20:57:29.316Z,68.68
2023-01-11T20:59:57.516Z,68.01
2023-01-11T21:02:25.086Z,68.73
2023-01-11T21:04:52.611Z,68.77
2023-01-11T21:07:20.252Z,67.93
2023-01-11T21:09:47.882Z,67.73
2023-01-11T21:12:17.451Z,68.16
2023-01-11T21:14:46.291Z,67.36
2023-01-11T21:17:13.840Z,67.05
2023-01-11T21:19:43.540Z,67.68
2023-01-11T21:22:11.165Z,67.36
2023-01-11T21:24:40.884Z,67.41
2023-01-11T21:27:08.984Z,67.41
2023-01-11T21:29:36.640Z,68.98
2023-01-11T21:32:06.038Z,70.17
2023-01-11T21:34:33.558Z,71.07
2023-01-11T21:37:01.084Z,71.23
2023-01-11T21:39:28.756Z,71.50
2023-01-11T21:41:57.343Z,72.57
2023-01-11T21:44:29.304Z,72.70
2023-01-11T21:46:56.890Z,72.69
2023-01-11T21:49:25.777Z,71.90
2023-01-11T21:51:53.756Z,72.81
2023-01-11T21:54:21.656Z,72.86
2023-01-11T21:56:50.065Z,73.58
2023-01-11T21:59:18.433Z,73.75
2023-01-11T22:01:49.267Z,74.45
2023-01-11T22:04:19.169Z,74.10
2023-01-11T22:06:51.255Z,74.22
2023-01-11T22:09:19.876Z,74.99
2023-01-11T22:11:47.393Z,75.08
2023-01-11T22:14:14.835Z,74.91
2023-01-11T22:16:42.347Z,76.33
2023-01-11T22:19:10.289Z,76.63
2023-01-11T22:21:38.608Z,76.47
2023-01-11T22:24:10.483Z,76.12
2023-01-11T22:26:38.835Z,77.44
2023-01-11T22:29:15.647Z,76.87
2023-01-11T22:31:46.694Z,77.56
2023-01-11T22:34:15.814Z,77.87
2023-01-11T22:36:44.458Z,77.35
2023-01-11T22:39:15.006Z,77.44
2023-01-11T22:41:45.320Z,78.58
2023-01-11T22:44:13.641Z,78.21
2023-01-11T22:46:41.366Z,77.63
2023-01-11T22:49:09.285Z,77.19
2023-01-11T22:51:37.129Z,77.17
2023-01-11T22:54:05.419Z,78.71
2023-01-11T22:56:34.351Z,77.69
2023-01-11T22:59:02.020Z,77.79
2023-01-11T23:01:31.673Z,78.09
2023-01-11T23:03:59.968Z,78.76
2023-01-11T23:06:29.495Z,77.96
2023-01-11T23:08:58.116Z,77.93
2023-01-11T23:11:45.736Z,78.41
2023-01-11T23:14:17.684Z,79.38
2023-01-11T23:16:46.979Z,79.07
2023-01-11T23:19:17.274Z,78.24
2023-01-11T23:21:46.193Z,78.79
2023-01-11T23:24:16.096Z,78.58
2023-01-11T23:26:43.774Z,79.15
2023-01-11T23:29:11.546Z,78.38
2023-01-11T23:31:40.450Z,78.56
2023-01-11T23:34:08.807Z,79.28
2023-01-11T23:36:38.269Z,78.87
2023-01-11T23:39:06.788Z,78.58
2023-01-11T23:41:52.142Z,78.31
2023-01-11T23:44:19.965Z,79.08
2023-01-11T23:47:06.295Z,78.89
2023-01-11T23:49:34.043Z,78.92
2023-01-11T23:52:02.014Z,79.09
2023-01-11T23:54:31.827Z,79.95
2023-01-11T23:57:00.444Z,79.75
2023-01-11T23:59:28.224Z,79.63
